sensor_id;sensor_type;location;lat;lon;timestamp;P1;durP1;ratioP1;P2;durP2;ratioP2
55575;SDS011;41437;45.478;9.116;2022-11-11T00:01:15;69.68;;;44.58;;
55575;SDS011;41437;45.478;9.116;2022-11-11T00:04:17;80.85;;;48.53;;
55575;SDS011;41437;45.478;9.116;2022-11-11T00:07:19;67.53;;;44.17;;
55575;SDS011;41437;45.478;9.116;2022-11-11T00:10:20;70.07;;;42.72;;
55575;SDS011;41437;45.478;9.116;2022-11-11T00:13:23;75.38;;;40.50;;
55575;SDS011;41437;45.478;9.116;2022-11-11T00:16:25;60.00;;;40.25;;
55575;SDS011;41437;45.478;9.116;2022-11-11T00:19:47;62.67;;;41.95;;
55575;SDS011;41437;45.478;9.116;2022-11-11T00:23:07;64.53;;;42.40;;
55575;SDS011;41437;45.478;9.116;2022-11-11T00:26:37;60.67;;;39.63;;
55575;SDS011;41437;45.478;9.116;2022-11-11T00:29:40;53.22;;;37.80;;
55575;SDS011;41437;45.478;9.116;2022-11-11T00:32:46;54.13;;;35.70;;
55575;SDS011;41437;45.478;9.116;2022-11-11T00:35:47;55.72;;;37.63;;
55575;SDS011;41437;45.478;9.116;2022-11-11T00:38:54;59.17;;;39.40;;
55575;SDS011;41437;45.478;9.116;2022-11-11T00:41:57;67.57;;;42.38;;
55575;SDS011;41437;45.478;9.116;2022-11-11T00:45:00;62.53;;;41.95;;
55575;SDS011;41437;45.478;9.116;2022-11-11T00:48:02;64.07;;;42.05;;
55575;SDS011;41437;45.478;9.116;2022-11-11T00:51:22;63.55;;;41.88;;
55575;SDS011;41437;45.478;9.116;2022-11-11T00:54:23;61.33;;;40.47;;
55575;SDS011;41437;45.478;9.116;2022-11-11T00:57:25;60.28;;;39.75;;
55575;SDS011;41437;45.478;9.116;2022-11-11T01:00:28;54.58;;;38.45;;
55575;SDS011;41437;45.478;9.116;2022-11-11T01:03:29;53.65;;;35.55;;
55575;SDS011;41437;45.478;9.116;2022-11-11T01:06:31;54.30;;;37.38;;
55575;SDS011;41437;45.478;9.116;2022-11-11T01:09:33;59.05;;;37.13;;
55575;SDS011;41437;45.478;9.116;2022-11-11T01:12:34;51.08;;;35.72;;
55575;SDS011;41437;45.478;9.116;2022-11-11T01:15:37;49.08;;;35.05;;
55575;SDS011;41437;45.478;9.116;2022-11-11T01:21:43;50.75;;;33.40;;
55575;SDS011;41437;45.478;9.116;2022-11-11T01:24:45;47.85;;;33.92;;
55575;SDS011;41437;45.478;9.116;2022-11-11T01:27:47;46.38;;;33.22;;
55575;SDS011;41437;45.478;9.116;2022-11-11T01:30:50;48.33;;;33.78;;
55575;SDS011;41437;45.478;9.116;2022-11-11T01:33:52;49.80;;;32.50;;
55575;SDS011;41437;45.478;9.116;2022-11-11T01:36:56;48.88;;;32.67;;
55575;SDS011;41437;45.478;9.116;2022-11-11T01:40:00;48.55;;;32.03;;
55575;SDS011;41437;45.478;9.116;2022-11-11T01:43:14;47.85;;;33.55;;
55575;SDS011;41437;45.478;9.116;2022-11-11T01:46:28;46.80;;;33.25;;
55575;SDS011;41437;45.478;9.116;2022-11-11T01:49:33;53.25;;;35.13;;
55575;SDS011;41437;45.478;9.116;2022-11-11T01:52:39;45.10;;;31.88;;
55575;SDS011;41437;45.478;9.116;2022-11-11T01:55:44;48.03;;;32.40;;
55575;SDS011;41437;45.478;9.116;2022-11-11T01:58:47;45.70;;;31.05;;
55575;SDS011;41437;45.478;9.116;2022-11-11T02:01:51;48.13;;;32.67;;
55575;SDS011;41437;45.478;9.116;2022-11-11T02:04:53;47.27;;;32.17;;
55575;SDS011;41437;45.478;9.116;2022-11-11T02:08:14;44.47;;;30.33;;
55575;SDS011;41437;45.478;9.116;2022-11-11T02:11:32;47.20;;;32.38;;
55575;SDS011;41437;45.478;9.116;2022-11-11T02:14:54;46.35;;;31.77;;
55575;SDS011;41437;45.478;9.116;2022-11-11T02:18:03;40.35;;;29.00;;
55575;SDS011;41437;45.478;9.116;2022-11-11T02:21:06;38.65;;;28.70;;
55575;SDS011;41437;45.478;9.116;2022-11-11T02:24:10;34.67;;;25.35;;
55575;SDS011;41437;45.478;9.116;2022-11-11T02:27:15;40.70;;;27.63;;
55575;SDS011;41437;45.478;9.116;2022-11-11T02:30:21;39.03;;;27.80;;
55575;SDS011;41437;45.478;9.116;2022-11-11T02:33:24;38.88;;;27.52;;
55575;SDS011;41437;45.478;9.116;2022-11-11T02:36:26;29.30;;;24.02;;
55575;SDS011;41437;45.478;9.116;2022-11-11T02:39:29;31.05;;;25.02;;
55575;SDS011;41437;45.478;9.116;2022-11-11T02:45:35;37.42;;;26.42;;
55575;SDS011;41437;45.478;9.116;2022-11-11T02:48:36;38.97;;;28.52;;
55575;SDS011;41437;45.478;9.116;2022-11-11T02:51:38;39.97;;;28.15;;
55575;SDS011;41437;45.478;9.116;2022-11-11T02:54:41;34.25;;;25.95;;
55575;SDS011;41437;45.478;9.116;2022-11-11T02:57:43;33.67;;;26.05;;
55575;SDS011;41437;45.478;9.116;2022-11-11T03:00:44;32.40;;;26.33;;
55575;SDS011;41437;45.478;9.116;2022-11-11T03:03:46;33.63;;;26.73;;
55575;SDS011;41437;45.478;9.116;2022-11-11T03:06:48;33.53;;;27.63;;
55575;SDS011;41437;45.478;9.116;2022-11-11T03:09:51;41.35;;;28.17;;
55575;SDS011;41437;45.478;9.116;2022-11-11T03:12:52;98.50;;;30.33;;
55575;SDS011;41437;45.478;9.116;2022-11-11T03:15:54;37.03;;;29.27;;
55575;SDS011;41437;45.478;9.116;2022-11-11T03:18:55;33.42;;;27.23;;
55575;SDS011;41437;45.478;9.116;2022-11-11T03:21:56;35.83;;;28.30;;
55575;SDS011;41437;45.478;9.116;2022-11-11T03:24:59;33.38;;;27.00;;
55575;SDS011;41437;45.478;9.116;2022-11-11T03:28:19;31.98;;;25.98;;
55575;SDS011;41437;45.478;9.116;2022-11-11T03:31:23;33.20;;;25.88;;
55575;SDS011;41437;45.478;9.116;2022-11-11T03:34:25;34.53;;;27.70;;
55575;SDS011;41437;45.478;9.116;2022-11-11T03:37:27;33.40;;;26.02;;
55575;SDS011;41437;45.478;9.116;2022-11-11T03:40:47;34.42;;;26.75;;
55575;SDS011;41437;45.478;9.116;2022-11-11T03:46:51;29.02;;;23.15;;
55575;SDS011;41437;45.478;9.116;2022-11-11T03:49:53;29.60;;;23.27;;
55575;SDS011;41437;45.478;9.116;2022-11-11T03:52:54;29.42;;;23.10;;
55575;SDS011;41437;45.478;9.116;2022-11-11T03:55:57;27.83;;;22.55;;
55575;SDS011;41437;45.478;9.116;2022-11-11T03:58:59;31.50;;;23.50;;
55575;SDS011;41437;45.478;9.116;2022-11-11T04:02:00;30.30;;;22.85;;
55575;SDS011;41437;45.478;9.116;2022-11-11T04:05:19;27.50;;;22.40;;
55575;SDS011;41437;45.478;9.116;2022-11-11T04:08:39;27.40;;;21.30;;
55575;SDS011;41437;45.478;9.116;2022-11-11T04:11:59;27.15;;;20.90;;
55575;SDS011;41437;45.478;9.116;2022-11-11T04:15:01;25.23;;;21.52;;
55575;SDS011;41437;45.478;9.116;2022-11-11T04:18:20;27.13;;;21.15;;
55575;SDS011;41437;45.478;9.116;2022-11-11T04:21:42;27.95;;;21.25;;
55575;SDS011;41437;45.478;9.116;2022-11-11T04:24:43;27.33;;;21.17;;
55575;SDS011;41437;45.478;9.116;2022-11-11T04:28:03;28.58;;;21.27;;
55575;SDS011;41437;45.478;9.116;2022-11-11T04:31:22;24.33;;;19.95;;
55575;SDS011;41437;45.478;9.116;2022-11-11T04:34:24;23.48;;;19.13;;
55575;SDS011;41437;45.478;9.116;2022-11-11T04:37:25;25.85;;;19.95;;
55575;SDS011;41437;45.478;9.116;2022-11-11T04:40:28;20.67;;;17.65;;
55575;SDS011;41437;45.478;9.116;2022-11-11T04:43:48;18.58;;;16.13;;
55575;SDS011;41437;45.478;9.116;2022-11-11T04:47:07;21.63;;;17.90;;
55575;SDS011;41437;45.478;9.116;2022-11-11T04:50:09;21.95;;;18.40;;
55575;SDS011;41437;45.478;9.116;2022-11-11T04:53:11;23.60;;;18.35;;
55575;SDS011;41437;45.478;9.116;2022-11-11T04:56:14;24.42;;;19.17;;
55575;SDS011;41437;45.478;9.116;2022-11-11T04:59:31;24.52;;;19.15;;
55575;SDS011;41437;45.478;9.116;2022-11-11T05:02:32;24.70;;;20.10;;
55575;SDS011;41437;45.478;9.116;2022-11-11T05:05:52;27.05;;;20.17;;
55575;SDS011;41437;45.478;9.116;2022-11-11T05:09:14;23.33;;;18.80;;
55575;SDS011;41437;45.478;9.116;2022-11-11T05:12:16;23.60;;;19.38;;
55575;SDS011;41437;45.478;9.116;2022-11-11T05:15:19;25.40;;;20.70;;
55575;SDS011;41437;45.478;9.116;2022-11-11T05:18:38;25.88;;;20.30;;
55575;SDS011;41437;45.478;9.116;2022-11-11T05:21:59;22.42;;;17.83;;
55575;SDS011;41437;45.478;9.116;2022-11-11T05:25:07;21.48;;;17.17;;
55575;SDS011;41437;45.478;9.116;2022-11-11T05:28:29;17.48;;;15.20;;
55575;SDS011;41437;45.478;9.116;2022-11-11T05:31:32;20.88;;;17.70;;
55575;SDS011;41437;45.478;9.116;2022-11-11T05:34:34;20.67;;;17.08;;
55575;SDS011;41437;45.478;9.116;2022-11-11T05:37:42;22.75;;;18.40;;
55575;SDS011;41437;45.478;9.116;2022-11-11T05:41:04;21.92;;;17.00;;
55575;SDS011;41437;45.478;9.116;2022-11-11T05:44:06;23.23;;;18.52;;
55575;SDS011;41437;45.478;9.116;2022-11-11T05:47:11;25.17;;;19.52;;
55575;SDS011;41437;45.478;9.116;2022-11-11T05:50:13;31.77;;;19.42;;
55575;SDS011;41437;45.478;9.116;2022-11-11T05:53:15;50.20;;;18.88;;
55575;SDS011;41437;45.478;9.116;2022-11-11T05:56:23;59.60;;;17.90;;
55575;SDS011;41437;45.478;9.116;2022-11-11T05:59:24;21.13;;;17.45;;
55575;SDS011;41437;45.478;9.116;2022-11-11T06:02:31;18.92;;;16.10;;
55575;SDS011;41437;45.478;9.116;2022-11-11T06:05:32;18.42;;;15.65;;
55575;SDS011;41437;45.478;9.116;2022-11-11T06:08:36;20.77;;;16.52;;
55575;SDS011;41437;45.478;9.116;2022-11-11T06:11:37;23.30;;;17.15;;
55575;SDS011;41437;45.478;9.116;2022-11-11T06:14:39;24.50;;;18.35;;
55575;SDS011;41437;45.478;9.116;2022-11-11T06:17:45;27.20;;;18.10;;
55575;SDS011;41437;45.478;9.116;2022-11-11T06:20:51;26.65;;;18.77;;
55575;SDS011;41437;45.478;9.116;2022-11-11T06:23:53;22.73;;;18.40;;
55575;SDS011;41437;45.478;9.116;2022-11-11T06:26:54;23.52;;;19.40;;
55575;SDS011;41437;45.478;9.116;2022-11-11T06:29:56;25.50;;;20.15;;
55575;SDS011;41437;45.478;9.116;2022-11-11T06:32:59;24.90;;;19.65;;
55575;SDS011;41437;45.478;9.116;2022-11-11T06:36:01;22.50;;;18.40;;
55575;SDS011;41437;45.478;9.116;2022-11-11T06:39:03;22.13;;;16.70;;
55575;SDS011;41437;45.478;9.116;2022-11-11T06:42:05;22.58;;;17.80;;
55575;SDS011;41437;45.478;9.116;2022-11-11T06:45:07;24.95;;;19.20;;
55575;SDS011;41437;45.478;9.116;2022-11-11T06:48:10;23.40;;;18.90;;
55575;SDS011;41437;45.478;9.116;2022-11-11T06:54:16;21.33;;;16.38;;
55575;SDS011;41437;45.478;9.116;2022-11-11T06:57:18;23.80;;;17.00;;
55575;SDS011;41437;45.478;9.116;2022-11-11T07:00:22;20.65;;;17.15;;
55575;SDS011;41437;45.478;9.116;2022-11-11T07:03:28;21.38;;;17.02;;
55575;SDS011;41437;45.478;9.116;2022-11-11T07:06:30;23.48;;;17.85;;
55575;SDS011;41437;45.478;9.116;2022-11-11T07:09:32;23.15;;;18.48;;
55575;SDS011;41437;45.478;9.116;2022-11-11T07:12:34;26.50;;;19.83;;
55575;SDS011;41437;45.478;9.116;2022-11-11T07:15:35;24.75;;;19.13;;
55575;SDS011;41437;45.478;9.116;2022-11-11T07:18:41;22.90;;;18.75;;
55575;SDS011;41437;45.478;9.116;2022-11-11T07:21:45;22.90;;;17.77;;
55575;SDS011;41437;45.478;9.116;2022-11-11T07:24:46;26.17;;;19.38;;
55575;SDS011;41437;45.478;9.116;2022-11-11T07:27:48;21.77;;;18.27;;
55575;SDS011;41437;45.478;9.116;2022-11-11T07:30:51;22.25;;;18.05;;
55575;SDS011;41437;45.478;9.116;2022-11-11T07:33:54;22.98;;;17.77;;
55575;SDS011;41437;45.478;9.116;2022-11-11T07:36:56;27.25;;;18.63;;
55575;SDS011;41437;45.478;9.116;2022-11-11T07:39:57;23.67;;;18.52;;
55575;SDS011;41437;45.478;9.116;2022-11-11T07:42:59;23.88;;;17.98;;
55575;SDS011;41437;45.478;9.116;2022-11-11T07:46:01;21.75;;;17.23;;
55575;SDS011;41437;45.478;9.116;2022-11-11T07:49:04;21.35;;;17.20;;
55575;SDS011;41437;45.478;9.116;2022-11-11T07:52:06;26.10;;;17.98;;
55575;SDS011;41437;45.478;9.116;2022-11-11T07:55:08;25.95;;;18.13;;
55575;SDS011;41437;45.478;9.116;2022-11-11T07:58:14;25.48;;;18.65;;
55575;SDS011;41437;45.478;9.116;2022-11-11T08:01:16;28.05;;;19.23;;
55575;SDS011;41437;45.478;9.116;2022-11-11T08:04:20;28.00;;;19.67;;
55575;SDS011;41437;45.478;9.116;2022-11-11T08:07:21;26.75;;;19.27;;
55575;SDS011;41437;45.478;9.116;2022-11-11T08:10:23;26.35;;;20.17;;
55575;SDS011;41437;45.478;9.116;2022-11-11T08:13:25;29.33;;;21.33;;
55575;SDS011;41437;45.478;9.116;2022-11-11T08:16:41;26.80;;;21.55;;
55575;SDS011;41437;45.478;9.116;2022-11-11T08:19:44;28.52;;;22.13;;
55575;SDS011;41437;45.478;9.116;2022-11-11T08:22:46;27.80;;;21.77;;
55575;SDS011;41437;45.478;9.116;2022-11-11T08:25:48;38.33;;;23.98;;
55575;SDS011;41437;45.478;9.116;2022-11-11T08:28:51;31.30;;;22.27;;
55575;SDS011;41437;45.478;9.116;2022-11-11T08:31:53;26.17;;;21.08;;
55575;SDS011;41437;45.478;9.116;2022-11-11T08:34:56;27.98;;;20.65;;
55575;SDS011;41437;45.478;9.116;2022-11-11T08:37:59;31.60;;;20.23;;
55575;SDS011;41437;45.478;9.116;2022-11-11T08:41:02;30.05;;;21.05;;
55575;SDS011;41437;45.478;9.116;2022-11-11T08:44:06;31.20;;;20.58;;
55575;SDS011;41437;45.478;9.116;2022-11-11T08:47:09;25.45;;;19.67;;
55575;SDS011;41437;45.478;9.116;2022-11-11T08:50:12;26.65;;;19.33;;
55575;SDS011;41437;45.478;9.116;2022-11-11T08:53:14;27.13;;;19.07;;
55575;SDS011;41437;45.478;9.116;2022-11-11T08:56:15;25.17;;;17.85;;
55575;SDS011;41437;45.478;9.116;2022-11-11T08:59:19;28.07;;;17.67;;
55575;SDS011;41437;45.478;9.116;2022-11-11T09:02:20;23.05;;;16.85;;
55575;SDS011;41437;45.478;9.116;2022-11-11T09:05:23;21.02;;;15.43;;
55575;SDS011;41437;45.478;9.116;2022-11-11T09:08:27;20.70;;;16.20;;
55575;SDS011;41437;45.478;9.116;2022-11-11T09:11:31;19.88;;;15.43;;
55575;SDS011;41437;45.478;9.116;2022-11-11T09:14:35;19.73;;;15.70;;
55575;SDS011;41437;45.478;9.116;2022-11-11T09:17:36;18.73;;;14.52;;
55575;SDS011;41437;45.478;9.116;2022-11-11T09:20:39;20.55;;;15.02;;
55575;SDS011;41437;45.478;9.116;2022-11-11T09:23:41;20.50;;;13.93;;
55575;SDS011;41437;45.478;9.116;2022-11-11T09:26:42;19.23;;;13.65;;
55575;SDS011;41437;45.478;9.116;2022-11-11T09:29:46;18.50;;;13.88;;
55575;SDS011;41437;45.478;9.116;2022-11-11T09:32:47;15.60;;;13.10;;
55575;SDS011;41437;45.478;9.116;2022-11-11T09:35:50;17.00;;;13.38;;
55575;SDS011;41437;45.478;9.116;2022-11-11T09:38:52;19.17;;;13.37;;
55575;SDS011;41437;45.478;9.116;2022-11-11T09:41:55;18.02;;;13.25;;
55575;SDS011;41437;45.478;9.116;2022-11-11T09:45:10;16.45;;;12.57;;
55575;SDS011;41437;45.478;9.116;2022-11-11T09:48:29;16.30;;;11.13;;
55575;SDS011;41437;45.478;9.116;2022-11-11T09:51:41;32.08;;;11.25;;
55575;SDS011;41437;45.478;9.116;2022-11-11T09:54:49;19.00;;;11.70;;
55575;SDS011;41437;45.478;9.116;2022-11-11T09:57:54;17.95;;;12.73;;
55575;SDS011;41437;45.478;9.116;2022-11-11T10:01:00;18.48;;;11.90;;
55575;SDS011;41437;45.478;9.116;2022-11-11T10:04:09;20.45;;;12.25;;
55575;SDS011;41437;45.478;9.116;2022-11-11T10:07:21;18.40;;;13.52;;
55575;SDS011;41437;45.478;9.116;2022-11-11T10:10:32;18.15;;;11.65;;
55575;SDS011;41437;45.478;9.116;2022-11-11T10:13:42;19.65;;;11.93;;
55575;SDS011;41437;45.478;9.116;2022-11-11T10:16:46;18.20;;;11.43;;
55575;SDS011;41437;45.478;9.116;2022-11-11T10:20:02;23.30;;;12.88;;
55575;SDS011;41437;45.478;9.116;2022-11-11T10:23:14;17.73;;;12.75;;
55575;SDS011;41437;45.478;9.116;2022-11-11T10:26:17;18.38;;;12.70;;
55575;SDS011;41437;45.478;9.116;2022-11-11T10:29:21;16.25;;;11.65;;
55575;SDS011;41437;45.478;9.116;2022-11-11T10:32:27;15.18;;;12.07;;
55575;SDS011;41437;45.478;9.116;2022-11-11T10:35:33;17.73;;;12.38;;
55575;SDS011;41437;45.478;9.116;2022-11-11T10:38:40;14.55;;;11.80;;
55575;SDS011;41437;45.478;9.116;2022-11-11T10:41:50;16.25;;;12.30;;
55575;SDS011;41437;45.478;9.116;2022-11-11T10:44:53;18.13;;;12.25;;
55575;SDS011;41437;45.478;9.116;2022-11-11T10:47:59;17.02;;;12.95;;
55575;SDS011;41437;45.478;9.116;2022-11-11T10:51:05;19.63;;;12.80;;
55575;SDS011;41437;45.478;9.116;2022-11-11T10:54:09;17.27;;;12.35;;
55575;SDS011;41437;45.478;9.116;2022-11-11T10:57:16;17.88;;;12.50;;
55575;SDS011;41437;45.478;9.116;2022-11-11T11:00:22;16.85;;;12.85;;
55575;SDS011;41437;45.478;9.116;2022-11-11T11:03:24;16.65;;;12.23;;
55575;SDS011;41437;45.478;9.116;2022-11-11T11:06:33;16.63;;;13.57;;
55575;SDS011;41437;45.478;9.116;2022-11-11T11:09:40;17.45;;;13.25;;
55575;SDS011;41437;45.478;9.116;2022-11-11T11:12:49;18.90;;;14.02;;
55575;SDS011;41437;45.478;9.116;2022-11-11T11:15:56;20.25;;;13.88;;
55575;SDS011;41437;45.478;9.116;2022-11-11T11:19:15;17.15;;;12.95;;
55575;SDS011;41437;45.478;9.116;2022-11-11T11:22:18;19.73;;;14.82;;
55575;SDS011;41437;45.478;9.116;2022-11-11T11:25:21;19.92;;;14.15;;
55575;SDS011;41437;45.478;9.116;2022-11-11T11:28:23;16.33;;;14.23;;
55575;SDS011;41437;45.478;9.116;2022-11-11T11:31:33;18.45;;;13.90;;
55575;SDS011;41437;45.478;9.116;2022-11-11T11:37:57;18.77;;;14.48;;
55575;SDS011;41437;45.478;9.116;2022-11-11T11:41:00;16.92;;;13.45;;
55575;SDS011;41437;45.478;9.116;2022-11-11T11:44:01;19.53;;;13.23;;
55575;SDS011;41437;45.478;9.116;2022-11-11T11:47:10;18.25;;;13.20;;
55575;SDS011;41437;45.478;9.116;2022-11-11T11:50:30;15.88;;;12.10;;
55575;SDS011;41437;45.478;9.116;2022-11-11T11:53:45;22.33;;;12.10;;
55575;SDS011;41437;45.478;9.116;2022-11-11T11:56:59;14.20;;;11.68;;
55575;SDS011;41437;45.478;9.116;2022-11-11T12:00:05;13.90;;;11.52;;
55575;SDS011;41437;45.478;9.116;2022-11-11T12:03:18;18.70;;;11.75;;
55575;SDS011;41437;45.478;9.116;2022-11-11T12:09:52;16.92;;;12.02;;
55575;SDS011;41437;45.478;9.116;2022-11-11T12:13:02;16.75;;;12.32;;
55575;SDS011;41437;45.478;9.116;2022-11-11T12:16:15;13.70;;;11.57;;
55575;SDS011;41437;45.478;9.116;2022-11-11T12:19:31;16.13;;;12.93;;
55575;SDS011;41437;45.478;9.116;2022-11-11T12:22:45;16.15;;;13.50;;
55575;SDS011;41437;45.478;9.116;2022-11-11T12:26:06;15.18;;;12.73;;
55575;SDS011;41437;45.478;9.116;2022-11-11T12:29:19;16.42;;;13.05;;
55575;SDS011;41437;45.478;9.116;2022-11-11T12:32:48;17.70;;;13.30;;
55575;SDS011;41437;45.478;9.116;2022-11-11T12:36:06;16.67;;;13.30;;
55575;SDS011;41437;45.478;9.116;2022-11-11T12:39:16;17.70;;;13.90;;
55575;SDS011;41437;45.478;9.116;2022-11-11T12:42:34;16.88;;;13.48;;
55575;SDS011;41437;45.478;9.116;2022-11-11T12:45:54;19.88;;;15.18;;
55575;SDS011;41437;45.478;9.116;2022-11-11T12:49:04;21.63;;;14.73;;
55575;SDS011;41437;45.478;9.116;2022-11-11T12:52:20;19.20;;;15.68;;
55575;SDS011;41437;45.478;9.116;2022-11-11T12:55:38;21.42;;;15.23;;
55575;SDS011;41437;45.478;9.116;2022-11-11T12:58:49;17.02;;;13.70;;
55575;SDS011;41437;45.478;9.116;2022-11-11T13:02:00;15.73;;;12.88;;
55575;SDS011;41437;45.478;9.116;2022-11-11T13:05:17;16.85;;;11.68;;
55575;SDS011;41437;45.478;9.116;2022-11-11T13:08:27;16.52;;;12.60;;
55575;SDS011;41437;45.478;9.116;2022-11-11T13:11:47;18.85;;;13.43;;
55575;SDS011;41437;45.478;9.116;2022-11-11T13:15:03;17.88;;;12.48;;
55575;SDS011;41437;45.478;9.116;2022-11-11T13:18:13;14.57;;;11.35;;
55575;SDS011;41437;45.478;9.116;2022-11-11T13:21:20;15.65;;;12.38;;
55575;SDS011;41437;45.478;9.116;2022-11-11T13:24:26;14.90;;;12.02;;
55575;SDS011;41437;45.478;9.116;2022-11-11T13:27:33;18.92;;;12.75;;
55575;SDS011;41437;45.478;9.116;2022-11-11T13:30:44;15.82;;;11.77;;
55575;SDS011;41437;45.478;9.116;2022-11-11T13:33:53;15.25;;;10.82;;
55575;SDS011;41437;45.478;9.116;2022-11-11T13:36:58;15.00;;;10.60;;
55575;SDS011;41437;45.478;9.116;2022-11-11T13:40:02;12.20;;;10.25;;
55575;SDS011;41437;45.478;9.116;2022-11-11T13:43:13;14.52;;;9.88;;
55575;SDS011;41437;45.478;9.116;2022-11-11T13:46:32;12.52;;;9.93;;
55575;SDS011;41437;45.478;9.116;2022-11-11T13:49:42;11.50;;;9.52;;
55575;SDS011;41437;45.478;9.116;2022-11-11T13:52:52;11.15;;;8.82;;
55575;SDS011;41437;45.478;9.116;2022-11-11T13:55:59;13.50;;;10.73;;
55575;SDS011;41437;45.478;9.116;2022-11-11T13:59:02;13.88;;;10.70;;
55575;SDS011;41437;45.478;9.116;2022-11-11T14:02:11;13.63;;;10.15;;
55575;SDS011;41437;45.478;9.116;2022-11-11T14:05:28;12.43;;;8.90;;
55575;SDS011;41437;45.478;9.116;2022-11-11T14:08:49;11.27;;;8.40;;
55575;SDS011;41437;45.478;9.116;2022-11-11T14:11:53;11.55;;;9.18;;
55575;SDS011;41437;45.478;9.116;2022-11-11T14:15:37;13.73;;;9.98;;
55575;SDS011;41437;45.478;9.116;2022-11-11T14:18:42;17.27;;;9.90;;
55575;SDS011;41437;45.478;9.116;2022-11-11T14:21:47;15.00;;;10.13;;
55575;SDS011;41437;45.478;9.116;2022-11-11T14:24:50;14.63;;;9.52;;
55575;SDS011;41437;45.478;9.116;2022-11-11T14:27:51;18.00;;;10.02;;
55575;SDS011;41437;45.478;9.116;2022-11-11T14:30:56;13.05;;;9.52;;
55575;SDS011;41437;45.478;9.116;2022-11-11T14:34:30;17.80;;;10.37;;
55575;SDS011;41437;45.478;9.116;2022-11-11T14:37:59;23.38;;;15.00;;
55575;SDS011;41437;45.478;9.116;2022-11-11T14:44:46;31.58;;;21.42;;
55575;SDS011;41437;45.478;9.116;2022-11-11T14:47:51;27.10;;;19.17;;
55575;SDS011;41437;45.478;9.116;2022-11-11T14:50:55;27.17;;;19.58;;
55575;SDS011;41437;45.478;9.116;2022-11-11T14:53:58;28.88;;;20.95;;
55575;SDS011;41437;45.478;9.116;2022-11-11T14:57:02;32.67;;;21.80;;
55575;SDS011;41437;45.478;9.116;2022-11-11T15:00:10;26.58;;;18.13;;
55575;SDS011;41437;45.478;9.116;2022-11-11T15:03:19;27.38;;;18.60;;
55575;SDS011;41437;45.478;9.116;2022-11-11T15:06:31;22.73;;;16.38;;
55575;SDS011;41437;45.478;9.116;2022-11-11T15:13:15;26.30;;;18.10;;
55575;SDS011;41437;45.478;9.116;2022-11-11T15:16:45;28.90;;;19.25;;
55575;SDS011;41437;45.478;9.116;2022-11-11T15:19:59;28.65;;;18.58;;
55575;SDS011;41437;45.478;9.116;2022-11-11T15:23:13;27.23;;;18.02;;
55575;SDS011;41437;45.478;9.116;2022-11-11T15:26:25;31.25;;;20.15;;
55575;SDS011;41437;45.478;9.116;2022-11-11T15:29:48;32.17;;;21.20;;
55575;SDS011;41437;45.478;9.116;2022-11-11T15:33:03;30.42;;;20.73;;
55575;SDS011;41437;45.478;9.116;2022-11-11T15:36:15;30.95;;;19.95;;
55575;SDS011;41437;45.478;9.116;2022-11-11T15:39:24;28.35;;;19.13;;
55575;SDS011;41437;45.478;9.116;2022-11-11T15:42:30;27.38;;;19.50;;
55575;SDS011;41437;45.478;9.116;2022-11-11T15:45:36;30.75;;;19.15;;
55575;SDS011;41437;45.478;9.116;2022-11-11T15:48:39;32.10;;;24.50;;
55575;SDS011;41437;45.478;9.116;2022-11-11T15:51:43;35.60;;;26.13;;
55575;SDS011;41437;45.478;9.116;2022-11-11T15:54:46;37.88;;;27.45;;
55575;SDS011;41437;45.478;9.116;2022-11-11T15:57:49;38.53;;;26.75;;
55575;SDS011;41437;45.478;9.116;2022-11-11T16:00:51;37.27;;;27.23;;
55575;SDS011;41437;45.478;9.116;2022-11-11T16:03:52;39.30;;;27.05;;
55575;SDS011;41437;45.478;9.116;2022-11-11T16:06:54;40.72;;;27.15;;
55575;SDS011;41437;45.478;9.116;2022-11-11T16:09:57;38.72;;;26.92;;
55575;SDS011;41437;45.478;9.116;2022-11-11T16:13:02;41.03;;;28.98;;
55575;SDS011;41437;45.478;9.116;2022-11-11T16:16:09;44.90;;;29.20;;
55575;SDS011;41437;45.478;9.116;2022-11-11T16:19:18;41.78;;;28.52;;
55575;SDS011;41437;45.478;9.116;2022-11-11T16:22:25;41.58;;;28.90;;
55575;SDS011;41437;45.478;9.116;2022-11-11T16:25:32;43.58;;;29.60;;
55575;SDS011;41437;45.478;9.116;2022-11-11T16:28:38;48.30;;;30.23;;
55575;SDS011;41437;45.478;9.116;2022-11-11T16:31:42;49.47;;;31.30;;
55575;SDS011;41437;45.478;9.116;2022-11-11T16:34:45;46.92;;;30.58;;
55575;SDS011;41437;45.478;9.116;2022-11-11T16:37:50;46.20;;;30.17;;
55575;SDS011;41437;45.478;9.116;2022-11-11T16:40:53;46.47;;;29.98;;
55575;SDS011;41437;45.478;9.116;2022-11-11T16:43:57;44.85;;;31.58;;
55575;SDS011;41437;45.478;9.116;2022-11-11T16:50:02;45.00;;;30.23;;
55575;SDS011;41437;45.478;9.116;2022-11-11T16:53:06;49.05;;;32.03;;
55575;SDS011;41437;45.478;9.116;2022-11-11T16:56:22;46.25;;;30.70;;
55575;SDS011;41437;45.478;9.116;2022-11-11T16:59:33;45.22;;;30.88;;
55575;SDS011;41437;45.478;9.116;2022-11-11T17:02:39;43.38;;;29.02;;
55575;SDS011;41437;45.478;9.116;2022-11-11T17:05:48;48.47;;;31.75;;
55575;SDS011;41437;45.478;9.116;2022-11-11T17:08:51;43.75;;;30.15;;
55575;SDS011;41437;45.478;9.116;2022-11-11T17:11:54;47.72;;;31.45;;
55575;SDS011;41437;45.478;9.116;2022-11-11T17:14:57;48.17;;;32.63;;
55575;SDS011;41437;45.478;9.116;2022-11-11T17:17:59;45.30;;;31.08;;
55575;SDS011;41437;45.478;9.116;2022-11-11T17:21:03;55.97;;;34.55;;
55575;SDS011;41437;45.478;9.116;2022-11-11T17:24:05;50.88;;;33.00;;
55575;SDS011;41437;45.478;9.116;2022-11-11T17:27:08;44.40;;;30.92;;
55575;SDS011;41437;45.478;9.116;2022-11-11T17:30:12;52.17;;;31.60;;
55575;SDS011;41437;45.478;9.116;2022-11-11T17:33:14;50.50;;;31.75;;
55575;SDS011;41437;45.478;9.116;2022-11-11T17:36:16;48.53;;;32.72;;
55575;SDS011;41437;45.478;9.116;2022-11-11T17:39:17;50.95;;;32.50;;
55575;SDS011;41437;45.478;9.116;2022-11-11T17:42:19;50.53;;;32.95;;
55575;SDS011;41437;45.478;9.116;2022-11-11T17:45:22;52.00;;;33.20;;
55575;SDS011;41437;45.478;9.116;2022-11-11T17:48:24;49.53;;;33.73;;
55575;SDS011;41437;45.478;9.116;2022-11-11T17:51:25;46.75;;;31.20;;
55575;SDS011;41437;45.478;9.116;2022-11-11T17:54:28;50.88;;;32.17;;
55575;SDS011;41437;45.478;9.116;2022-11-11T17:57:30;54.05;;;34.55;;
55575;SDS011;41437;45.478;9.116;2022-11-11T18:00:33;51.03;;;32.80;;
55575;SDS011;41437;45.478;9.116;2022-11-11T18:03:35;54.33;;;35.00;;
55575;SDS011;41437;45.478;9.116;2022-11-11T18:06:38;49.92;;;33.35;;
55575;SDS011;41437;45.478;9.116;2022-11-11T18:09:39;50.83;;;33.45;;
55575;SDS011;41437;45.478;9.116;2022-11-11T18:12:41;49.47;;;33.22;;
55575;SDS011;41437;45.478;9.116;2022-11-11T18:15:44;53.13;;;32.60;;
55575;SDS011;41437;45.478;9.116;2022-11-11T18:18:50;51.15;;;33.25;;
55575;SDS011;41437;45.478;9.116;2022-11-11T18:21:54;53.28;;;33.63;;
55575;SDS011;41437;45.478;9.116;2022-11-11T18:24:56;53.20;;;34.35;;
55575;SDS011;41437;45.478;9.116;2022-11-11T18:27:58;53.75;;;34.60;;
55575;SDS011;41437;45.478;9.116;2022-11-11T18:31:05;53.03;;;34.00;;
55575;SDS011;41437;45.478;9.116;2022-11-11T18:34:08;51.35;;;32.17;;
55575;SDS011;41437;45.478;9.116;2022-11-11T18:37:09;48.13;;;30.48;;
55575;SDS011;41437;45.478;9.116;2022-11-11T18:40:11;41.63;;;28.48;;